createdAt,value
2023-09-27T00:01:03.962Z,14.81
2023-09-27T00:03:32.199Z,14.83
2023-09-27T00:06:00.698Z,14.81
2023-09-27T00:08:29.139Z,14.76
2023-09-27T00:10:58.424Z,14.73
2023-09-27T00:13:26.725Z,14.77
2023-09-27T00:15:56.128Z,14.94
2023-09-27T00:18:24.493Z,15.10
2023-09-27T00:20:53.276Z,15.23
2023-09-27T00:23:21.501Z,15.34
2023-09-27T00:25:49.928Z,15.51
2023-09-27T00:28:18.247Z,15.49
2023-09-27T00:30:46.331Z,15.39
2023-09-27T00:33:17.210Z,15.33
2023-09-27T00:35:49.811Z,15.63
2023-09-27T00:38:18.364Z,15.67
2023-09-27T00:40:47.650Z,15.58
2023-09-27T00:43:29.181Z,15.52
2023-09-27T00:45:59.883Z,15.51
2023-09-27T00:48:29.854Z,15.44
2023-09-27T00:50:58.073Z,15.18
2023-09-27T00:53:29.119Z,14.97
2023-09-27T00:55:58.126Z,14.90
2023-09-27T00:58:26.678Z,15.09
2023-09-27T01:00:54.940Z,15.41
2023-09-27T01:03:23.080Z,15.54
2023-09-27T01:05:52.945Z,15.62
2023-09-27T01:08:21.270Z,15.61
2023-09-27T01:10:49.878Z,15.57
2023-09-27T01:13:18.855Z,15.57
2023-09-27T01:15:47.143Z,15.59
2023-09-27T01:18:15.384Z,15.54
2023-09-27T01:20:43.570Z,15.70
2023-09-27T01:23:13.177Z,15.55
2023-09-27T01:25:41.753Z,15.55
2023-09-27T01:28:11.545Z,15.53
2023-09-27T01:30:40.875Z,15.51
2023-09-27T01:33:12.945Z,15.48
2023-09-27T01:35:42.706Z,15.45
2023-09-27T01:38:14.928Z,15.19
2023-09-27T01:40:44.685Z,15.05
2023-09-27T01:43:14.498Z,14.94
2023-09-27T01:45:43.976Z,14.79
2023-09-27T01:48:12.369Z,14.54
2023-09-27T01:50:41.199Z,14.44
2023-09-27T01:53:09.782Z,14.29
2023-09-27T01:55:39.339Z,14.22
2023-09-27T01:58:07.897Z,14.06
2023-09-27T02:00:37.292Z,14.03
2023-09-27T02:03:06.233Z,14.16
2023-09-27T02:05:34.455Z,14.35
2023-09-27T02:08:03.058Z,14.27
2023-09-27T02:10:31.379Z,14.11
2023-09-27T02:13:01.808Z,13.95
2023-09-27T02:15:30.085Z,13.84
2023-09-27T02:17:58.462Z,13.82
2023-09-27T02:20:27.246Z,13.94
2023-09-27T02:22:56.934Z,13.99
2023-09-27T02:25:26.746Z,13.88
2023-09-27T02:27:55.185Z,13.71
2023-09-27T02:30:24.741Z,13.73
2023-09-27T02:32:54.047Z,13.65
2023-09-27T02:35:22.932Z,13.46
2023-09-27T02:37:51.187Z,13.33
2023-09-27T02:40:19.719Z,13.23
2023-09-27T02:42:49.564Z,13.16
2023-09-27T02:45:18.118Z,13.08
2023-09-27T02:47:48.789Z,12.90
2023-09-27T02:50:17.329Z,13.17
2023-09-27T02:52:46.012Z,13.40
2023-09-27T02:55:15.428Z,13.22
2023-09-27T02:57:44.269Z,13.13
2023-09-27T03:00:13.322Z,13.32
2023-09-27T03:02:43.111Z,13.15
2023-09-27T03:05:13.137Z,13.09
2023-09-27T03:07:41.223Z,12.99
2023-09-27T03:10:12.558Z,12.99
2023-09-27T03:12:41.906Z,13.14
2023-09-27T03:15:13.702Z,13.18
2023-09-27T03:17:43.936Z,13.02
2023-09-27T03:20:18.211Z,12.90
2023-09-27T03:22:47.571Z,12.78
2023-09-27T03:25:18.169Z,12.69
2023-09-27T03:27:47.392Z,12.59
2023-09-27T03:30:16.178Z,12.54
2023-09-27T03:32:45.098Z,12.40
2023-09-27T03:35:15.266Z,12.27
2023-09-27T03:37:45.590Z,12.18
2023-09-27T03:40:15.740Z,12.23
2023-09-27T03:42:46.041Z,12.19
2023-09-27T03:45:15.720Z,12.19
2023-09-27T03:47:46.009Z,12.29
2023-09-27T03:50:19.544Z,12.33
2023-09-27T03:52:47.886Z,12.39
2023-09-27T03:55:16.126Z,12.43
2023-09-27T03:57:44.886Z,12.36
2023-09-27T04:00:15.311Z,12.34
2023-09-27T04:02:45.636Z,12.34
2023-09-27T04:05:15.612Z,12.33
2023-09-27T04:07:45.157Z,12.18
2023-09-27T04:10:13.273Z,12.19
2023-09-27T04:12:41.581Z,12.18
2023-09-27T04:15:11.068Z,12.19
2023-09-27T04:17:40.370Z,12.15
2023-09-27T04:20:18.615Z,12.17
2023-09-27T04:22:49.918Z,12.27
2023-09-27T04:25:19.634Z,12.35
2023-09-27T04:27:51.252Z,12.28
2023-09-27T04:30:21.482Z,12.33
2023-09-27T04:32:52.165Z,12.31
2023-09-27T04:35:21.299Z,12.32
2023-09-27T04:37:51.301Z,12.56
2023-09-27T04:40:19.812Z,12.58
2023-09-27T04:42:48.716Z,12.48
2023-09-27T04:45:17.247Z,12.47
2023-09-27T04:47:46.452Z,12.64
2023-09-27T04:50:16.704Z,12.63
2023-09-27T04:52:45.291Z,12.54
2023-09-27T04:55:16.153Z,12.61
2023-09-27T04:57:44.446Z,12.55
2023-09-27T05:00:20.209Z,12.56
2023-09-27T05:02:49.515Z,12.59
2023-09-27T05:05:18.029Z,12.71
2023-09-27T05:07:46.342Z,12.70
2023-09-27T05:10:16.275Z,12.79
2023-09-27T05:12:44.479Z,12.87
2023-09-27T05:15:12.909Z,12.88
2023-09-27T05:17:41.132Z,12.76
2023-09-27T05:20:12.135Z,12.68
2023-09-27T05:22:41.211Z,12.73
2023-09-27T05:25:09.962Z,12.72
2023-09-27T05:27:39.834Z,12.78
2023-09-27T05:30:10.062Z,12.75
2023-09-27T05:32:38.455Z,12.71
2023-09-27T05:35:07.709Z,12.84
2023-09-27T05:37:35.914Z,12.90
2023-09-27T05:40:05.768Z,12.89
2023-09-27T05:42:34.445Z,13.03
2023-09-27T05:45:05.442Z,13.15
2023-09-27T05:47:35.381Z,13.19
2023-09-27T05:50:05.225Z,13.19
2023-09-27T05:52:34.497Z,13.26
2023-09-27T05:55:02.718Z,13.32
2023-09-27T05:57:30.888Z,13.35
2023-09-27T05:59:59.895Z,13.41
2023-09-27T06:02:32.653Z,13.49
2023-09-27T06:05:01.897Z,13.59
2023-09-27T06:07:30.108Z,13.70
2023-09-27T06:09:58.337Z,13.91
2023-09-27T06:12:26.517Z,14.21
2023-09-27T06:14:54.672Z,14.45
2023-09-27T06:17:22.990Z,14.66
2023-09-27T06:19:52.488Z,15.08
2023-09-27T06:22:24.078Z,15.38
2023-09-27T06:24:52.926Z,15.62
2023-09-27T06:27:21.195Z,15.77
2023-09-27T06:29:49.455Z,16.00
2023-09-27T06:32:17.603Z,16.27
2023-09-27T06:34:49.872Z,16.47
2023-09-27T06:37:19.932Z,16.69
2023-09-27T06:39:48.278Z,16.81
2023-09-27T06:42:17.086Z,17.01
2023-09-27T06:44:45.295Z,17.11
2023-09-27T06:47:14.231Z,17.27
2023-09-27T06:49:42.627Z,17.40
2023-09-27T06:52:10.726Z,17.55
2023-09-27T06:54:40.308Z,17.68
2023-09-27T06:57:08.482Z,17.87
2023-09-27T06:59:37.555Z,18.25
2023-09-27T07:02:06.468Z,20.72
2023-09-27T07:04:34.632Z,22.67
2023-09-27T07:07:03.666Z,23.15
2023-09-27T07:09:32.405Z,24.10
2023-09-27T07:12:02.013Z,25.22
2023-09-27T07:14:30.269Z,26.77
2023-09-27T07:17:01.578Z,26.63
2023-09-27T07:19:32.805Z,26.26
2023-09-27T07:22:04.497Z,26.53
2023-09-27T07:24:34.272Z,26.28
2023-09-27T07:27:03.736Z,25.80
2023-09-27T07:29:32.023Z,25.87
2023-09-27T07:32:00.123Z,24.87
2023-09-27T07:34:28.739Z,24.42
2023-09-27T07:36:56.811Z,24.53
2023-09-27T07:39:25.422Z,25.47
2023-09-27T07:41:54.068Z,26.25
2023-09-27T07:44:23.618Z,24.32
2023-09-27T07:46:52.629Z,25.44
2023-09-27T07:49:20.778Z,25.92
2023-09-27T07:51:48.953Z,25.11
2023-09-27T07:54:17.636Z,25.32
2023-09-27T07:56:47.091Z,25.74
2023-09-27T07:59:15.268Z,25.47
2023-09-27T08:01:45.776Z,25.04
2023-09-27T08:04:16.407Z,25.61
2023-09-27T08:06:46.625Z,24.85
2023-09-27T08:09:27.780Z,24.50
2023-09-27T08:12:04.563Z,24.57
2023-09-27T08:14:32.725Z,25.00
2023-09-27T08:17:04.209Z,25.86
2023-09-27T08:19:33.183Z,26.65
2023-09-27T08:22:01.257Z,25.73
2023-09-27T08:24:29.436Z,26.96
2023-09-27T08:26:57.741Z,27.02
2023-09-27T08:29:27.179Z,26.60
2023-09-27T08:31:55.305Z,27.26
2023-09-27T08:34:25.058Z,27.93
2023-09-27T08:36:53.648Z,28.52
2023-09-27T08:39:21.963Z,29.19
2023-09-27T08:41:50.284Z,27.73
2023-09-27T08:44:18.727Z,27.16
2023-09-27T08:46:47.511Z,26.72
2023-09-27T08:49:18.003Z,27.12
2023-09-27T08:51:48.557Z,26.23
2023-09-27T08:54:18.762Z,27.36
2023-09-27T08:56:51.165Z,28.12
2023-09-27T08:59:20.643Z,28.64
2023-09-27T09:01:50.097Z,27.79
2023-09-27T09:04:18.531Z,28.56
2023-09-27T09:06:48.890Z,27.97
2023-09-27T09:09:17.020Z,28.23
2023-09-27T09:11:48.919Z,28.66
2023-09-27T09:14:19.755Z,27.78
2023-09-27T09:16:53.357Z,28.02
2023-09-27T09:19:42.864Z,28.54
2023-09-27T09:22:15.695Z,28.04
2023-09-27T09:24:45.089Z,27.72
2023-09-27T09:27:17.671Z,27.46
2023-09-27T09:29:46.973Z,26.89
2023-09-27T09:32:17.171Z,26.77
2023-09-27T09:34:46.228Z,26.91
2023-09-27T09:37:19.759Z,27.28
2023-09-27T09:39:49.547Z,28.28
2023-09-27T09:42:31.966Z,26.91
2023-09-27T09:45:08.207Z,29.00
2023-09-27T09:47:37.500Z,28.55
2023-09-27T09:50:13.250Z,28.49
2023-09-27T09:52:43.727Z,27.44
2023-09-27T09:57:52.825Z,27.26
2023-09-27T10:00:27.277Z,27.57
2023-09-27T10:03:01.854Z,27.41
2023-09-27T10:05:39.518Z,27.52
2023-09-27T10:08:09.621Z,27.92
2023-09-27T10:10:38.556Z,28.60
2023-09-27T10:13:09.690Z,27.31
2023-09-27T10:15:38.392Z,28.37
2023-09-27T10:18:34.830Z,27.69
2023-09-27T10:21:04.168Z,27.54
2023-09-27T10:23:37.337Z,27.24
2023-09-27T10:26:23.545Z,27.56
2023-09-27T10:29:19.693Z,27.18
2023-09-27T10:32:24.955Z,27.82
2023-09-27T10:34:57.864Z,27.25
2023-09-27T10:38:00.714Z,26.62
2023-09-27T10:40:43.552Z,27.12
2023-09-27T10:43:12.375Z,27.40
2023-09-27T10:45:40.614Z,27.12
2023-09-27T10:48:16.824Z,27.36
2023-09-27T10:50:52.970Z,27.63
2023-09-27T10:53:21.564Z,27.00
2023-09-27T10:55:51.236Z,26.25
2023-09-27T10:58:19.549Z,25.82
2023-09-27T11:00:57.542Z,26.37
2023-09-27T11:03:27.037Z,26.24
2023-09-27T11:05:55.251Z,26.08
2023-09-27T11:08:24.797Z,26.29
2023-09-27T11:10:57.935Z,25.99
2023-09-27T11:13:26.975Z,26.16
2023-09-27T11:15:55.331Z,26.62
2023-09-27T11:18:23.610Z,26.78
2023-09-27T11:20:52.045Z,27.40
2023-09-27T11:23:22.081Z,27.07
2023-09-27T11:25:50.648Z,26.98
2023-09-27T11:28:21.365Z,26.64
2023-09-27T11:30:58.933Z,26.12
2023-09-27T11:33:33.948Z,26.32
2023-09-27T11:36:06.246Z,25.97
2023-09-27T11:38:34.607Z,25.25
2023-09-27T11:41:07.016Z,25.67
2023-09-27T11:43:36.540Z,26.12
2023-09-27T11:46:05.901Z,26.63
2023-09-27T11:48:36.234Z,26.04
2023-09-27T11:51:05.822Z,25.64
2023-09-27T11:53:34.323Z,25.77
2023-09-27T11:56:02.799Z,26.12
2023-09-27T11:58:31.018Z,25.79
2023-09-27T12:01:00.575Z,26.54
2023-09-27T12:03:29.476Z,26.43
2023-09-27T12:05:58.146Z,25.60
2023-09-27T12:08:26.498Z,25.88
2023-09-27T12:10:54.711Z,26.19
2023-09-27T12:13:23.599Z,25.72
2023-09-27T12:15:52.411Z,25.37
2023-09-27T12:18:22.047Z,25.56
2023-09-27T12:20:51.396Z,25.80
2023-09-27T12:23:21.200Z,25.34
2023-09-27T12:25:49.423Z,25.26
2023-09-27T12:28:18.249Z,25.04
2023-09-27T12:30:46.483Z,25.07
2023-09-27T12:33:15.439Z,25.27
2023-09-27T12:35:47.923Z,25.00
2023-09-27T12:38:16.332Z,24.81
2023-09-27T12:40:44.501Z,24.51
2023-09-27T12:43:12.708Z,24.10
2023-09-27T12:45:41.223Z,24.46
2023-09-27T12:48:10.127Z,24.46
2023-09-27T12:50:42.425Z,24.40
2023-09-27T12:53:12.188Z,24.00
2023-09-27T12:55:43.372Z,24.43
2023-09-27T12:58:12.471Z,24.64
2023-09-27T13:00:41.097Z,24.54
2023-09-27T13:03:09.570Z,24.59
2023-09-27T13:05:38.276Z,24.49
2023-09-27T13:08:07.235Z,24.60
2023-09-27T13:10:38.282Z,24.82
2023-09-27T13:13:06.573Z,24.59
2023-09-27T13:15:34.809Z,24.64
2023-09-27T13:18:03.436Z,24.59
2023-09-27T13:20:32.892Z,24.48
2023-09-27T13:23:01.075Z,24.52
2023-09-27T13:25:29.282Z,24.55
2023-09-27T13:27:59.202Z,24.89
2023-09-27T13:30:35.340Z,25.00
2023-09-27T13:33:05.552Z,24.75
2023-09-27T13:35:36.653Z,24.84
2023-09-27T13:38:07.280Z,24.75
2023-09-27T13:40:35.863Z,24.94
2023-09-27T13:43:05.891Z,25.08
2023-09-27T13:45:34.284Z,24.79
2023-09-27T13:48:02.827Z,24.91
2023-09-27T13:50:33.575Z,25.25
2023-09-27T13:53:02.736Z,24.76
2023-09-27T13:55:31.314Z,24.95
2023-09-27T13:57:59.616Z,25.18
2023-09-27T14:00:29.367Z,24.71
2023-09-27T14:02:58.464Z,24.72
2023-09-27T14:05:26.926Z,24.69
2023-09-27T14:07:55.430Z,25.50
2023-09-27T14:10:24.973Z,25.34
2023-09-27T14:12:53.661Z,24.57
2023-09-27T14:15:22.814Z,24.88
2023-09-27T14:17:52.700Z,24.84
2023-09-27T14:20:22.489Z,24.46
2023-09-27T14:22:51.024Z,24.11
2023-09-27T14:25:21.126Z,24.46
2023-09-27T14:27:49.455Z,25.16
2023-09-27T14:30:17.633Z,24.84
2023-09-27T14:32:46.181Z,25.22
2023-09-27T14:35:15.932Z,24.83
2023-09-27T14:37:44.318Z,24.55
2023-09-27T14:40:13.855Z,24.30
2023-09-27T14:42:43.621Z,24.47
2023-09-27T14:45:28.463Z,24.39
2023-09-27T14:48:00.313Z,24.33
2023-09-27T14:50:30.448Z,24.56
2023-09-27T14:52:58.740Z,24.32
2023-09-27T14:55:27.288Z,24.60
2023-09-27T14:57:55.883Z,24.92
2023-09-27T15:00:24.457Z,24.80
2023-09-27T15:02:52.869Z,24.82
2023-09-27T15:05:21.634Z,24.97
2023-09-27T15:07:51.458Z,24.66
2023-09-27T15:10:19.711Z,24.62
2023-09-27T15:12:48.598Z,24.81
2023-09-27T15:15:16.804Z,24.86
2023-09-27T15:17:46.170Z,24.73
2023-09-27T15:20:15.834Z,24.39
2023-09-27T15:22:44.175Z,24.80
2023-09-27T15:25:13.778Z,24.28
2023-09-27T15:27:41.996Z,24.77
2023-09-27T15:30:12.238Z,24.13
2023-09-27T15:32:41.174Z,24.22
2023-09-27T15:35:10.200Z,24.33
2023-09-27T15:37:38.493Z,24.33
2023-09-27T15:40:07.642Z,24.01
2023-09-27T15:42:37.157Z,23.95
2023-09-27T15:45:10.720Z,23.86
2023-09-27T15:47:39.101Z,23.56
2023-09-27T15:50:10.174Z,23.64
2023-09-27T15:52:38.763Z,23.21
2023-09-27T15:55:09.287Z,23.10
2023-09-27T15:57:39.689Z,23.19
2023-09-27T16:00:12.556Z,22.99
2023-09-27T16:02:41.642Z,22.88
2023-09-27T16:05:12.089Z,22.66
2023-09-27T16:07:40.882Z,22.46
2023-09-27T16:10:11.042Z,22.30
2023-09-27T16:12:42.191Z,22.09
2023-09-27T16:15:11.779Z,21.97
2023-09-27T16:17:41.006Z,21.77
2023-09-27T16:20:10.335Z,21.49
2023-09-27T16:22:38.465Z,21.43
2023-09-27T16:25:08.345Z,21.18
2023-09-27T16:27:36.588Z,20.89
2023-09-27T16:30:08.634Z,20.52
2023-09-27T16:32:37.542Z,20.24
2023-09-27T16:35:06.127Z,20.21
2023-09-27T16:37:34.998Z,20.05
2023-09-27T16:40:04.428Z,19.73
2023-09-27T16:42:33.000Z,19.57
2023-09-27T16:45:03.790Z,19.33
2023-09-27T16:47:34.557Z,19.12
2023-09-27T16:50:03.004Z,18.82
2023-09-27T16:52:32.433Z,18.50
2023-09-27T16:55:01.818Z,18.12
2023-09-27T16:57:30.290Z,18.19
2023-09-27T16:59:58.620Z,18.05
2023-09-27T17:02:26.757Z,17.97
2023-09-27T17:04:56.390Z,17.97
2023-09-27T17:07:24.585Z,17.98
2023-09-27T17:09:52.801Z,17.80
2023-09-27T17:12:21.156Z,17.63
2023-09-27T17:14:49.397Z,17.80
2023-09-27T17:17:17.509Z,17.64
2023-09-27T17:19:47.407Z,17.43
2023-09-27T17:22:17.340Z,17.15
2023-09-27T17:24:46.890Z,17.03
2023-09-27T17:27:16.300Z,16.86
2023-09-27T17:29:44.606Z,16.73
2023-09-27T17:32:13.315Z,16.71
2023-09-27T17:34:41.608Z,16.47
2023-09-27T17:37:09.854Z,16.25
2023-09-27T17:39:39.780Z,16.00
2023-09-27T17:42:07.988Z,16.17
2023-09-27T17:44:38.484Z,16.24
2023-09-27T17:47:06.855Z,16.28
2023-09-27T17:49:35.224Z,16.16
2023-09-27T17:52:03.598Z,15.81
2023-09-27T17:54:31.770Z,16.02
2023-09-27T17:57:01.912Z,15.59
2023-09-27T17:59:30.263Z,15.58
2023-09-27T18:01:58.622Z,15.50
2023-09-27T18:04:29.668Z,15.24
2023-09-27T18:06:57.918Z,15.03
2023-09-27T18:09:26.045Z,15.01
2023-09-27T18:11:54.547Z,15.18
2023-09-27T18:14:25.214Z,15.16
2023-09-27T18:16:53.562Z,15.33
2023-09-27T18:19:21.799Z,15.46
2023-09-27T18:21:50.141Z,15.32
2023-09-27T18:24:18.412Z,15.41
2023-09-27T18:26:46.833Z,15.16
2023-09-27T18:29:15.494Z,14.88
2023-09-27T18:31:45.210Z,14.80
2023-09-27T18:34:15.009Z,14.65
2023-09-27T18:36:43.720Z,14.46
2023-09-27T18:39:11.891Z,14.42
2023-09-27T18:41:40.181Z,14.25
2023-09-27T18:44:08.669Z,14.06
2023-09-27T18:46:37.343Z,13.99
2023-09-27T18:49:07.087Z,13.91
2023-09-27T18:51:35.413Z,13.87
2023-09-27T18:54:03.732Z,13.69
2023-09-27T18:56:32.044Z,13.96
2023-09-27T18:59:02.125Z,13.97
2023-09-27T19:01:30.894Z,13.99
2023-09-27T19:04:00.163Z,14.09
2023-09-27T19:06:31.680Z,13.95
2023-09-27T19:09:00.164Z,13.90
2023-09-27T19:11:31.217Z,13.87
2023-09-27T19:13:59.579Z,13.72
2023-09-27T19:16:31.457Z,13.80
2023-09-27T19:18:59.893Z,13.54
2023-09-27T19:21:27.996Z,13.34
2023-09-27T19:23:57.585Z,13.26
2023-09-27T19:26:25.881Z,13.30
2023-09-27T19:28:54.981Z,13.35
2023-09-27T19:31:24.660Z,13.44
2023-09-27T19:33:53.091Z,13.64
2023-09-27T19:36:21.734Z,13.66
2023-09-27T19:38:50.521Z,13.70
2023-09-27T19:41:21.829Z,13.39
2023-09-27T19:43:50.012Z,13.52
2023-09-27T19:46:21.936Z,13.54
2023-09-27T19:48:50.100Z,13.31
2023-09-27T19:51:22.421Z,13.46
2023-09-27T19:53:51.093Z,13.33
2023-09-27T19:56:21.330Z,13.25
2023-09-27T19:58:50.439Z,13.22
2023-09-27T20:01:28.208Z,13.24
2023-09-27T20:03:57.382Z,13.31
2023-09-27T20:06:26.352Z,13.32
2023-09-27T20:08:54.831Z,13.31
2023-09-27T20:11:24.802Z,13.27
2023-09-27T20:13:53.342Z,13.25
2023-09-27T20:16:21.776Z,13.19
2023-09-27T20:18:50.269Z,13.03
2023-09-27T20:21:18.468Z,13.01
2023-09-27T20:23:46.623Z,12.88
2023-09-27T20:26:15.333Z,12.92
2023-09-27T20:28:45.201Z,13.01
2023-09-27T20:31:13.422Z,12.80
2023-09-27T20:33:41.924Z,12.71
2023-09-27T20:36:13.294Z,12.68
2023-09-27T20:38:41.465Z,12.79
2023-09-27T20:41:09.653Z,12.89
2023-09-27T20:43:37.943Z,13.00
2023-09-27T20:46:14.665Z,13.04
2023-09-27T20:48:43.376Z,13.10
2023-09-27T20:51:12.287Z,13.14
2023-09-27T20:53:40.527Z,13.18
2023-09-27T20:56:10.392Z,13.36
2023-09-27T20:58:41.985Z,13.36
2023-09-27T21:01:28.595Z,13.47
2023-09-27T21:04:00.201Z,13.66
2023-09-27T21:06:29.808Z,13.74
2023-09-27T21:08:59.054Z,13.66
2023-09-27T21:11:27.229Z,13.98
2023-09-27T21:13:56.574Z,13.97
2023-09-27T21:16:27.106Z,14.07
2023-09-27T21:18:56.521Z,14.28
2023-09-27T21:21:25.644Z,14.77
2023-09-27T21:23:54.250Z,15.05
2023-09-27T21:26:24.929Z,15.93
2023-09-27T21:28:54.015Z,16.47
2023-09-27T21:31:22.381Z,16.68
2023-09-27T21:33:52.408Z,16.77
2023-09-27T21:36:20.711Z,16.93
2023-09-27T21:38:48.961Z,17.11
2023-09-27T21:41:19.896Z,17.28
2023-09-27T21:43:49.369Z,17.46
2023-09-27T21:46:19.003Z,17.93
2023-09-27T21:48:49.139Z,17.88
2023-09-27T21:51:19.048Z,17.73
2023-09-27T21:53:47.373Z,17.76
2023-09-27T21:56:16.085Z,17.67
2023-09-27T21:58:44.509Z,17.61
2023-09-27T22:01:13.164Z,17.63
2023-09-27T22:03:42.330Z,17.45
2023-09-27T22:06:11.758Z,17.63
2023-09-27T22:08:49.385Z,17.54
2023-09-27T22:11:18.211Z,17.60
2023-09-27T22:13:49.035Z,17.45
2023-09-27T22:16:17.735Z,17.46
2023-09-27T22:18:50.115Z,17.27
2023-09-27T22:21:27.734Z,17.18
2023-09-27T22:23:59.680Z,17.29
2023-09-27T22:26:28.171Z,16.90
2023-09-27T22:28:57.730Z,16.65
2023-09-27T22:31:32.228Z,16.36
2023-09-27T22:34:11.707Z,16.24
2023-09-27T22:36:43.412Z,16.16
2023-09-27T22:39:16.919Z,16.48
2023-09-27T22:41:46.907Z,16.26
2023-09-27T22:44:21.725Z,16.17
2023-09-27T22:46:52.653Z,16.20
2023-09-27T22:49:22.498Z,15.90
2023-09-27T22:51:51.485Z,15.92
2023-09-27T22:54:22.852Z,15.74
2023-09-27T22:56:53.453Z,15.67
2023-09-27T22:59:22.571Z,15.72
2023-09-27T23:01:56.409Z,16.05
2023-09-27T23:04:25.130Z,16.14
2023-09-27T23:07:02.468Z,16.30
2023-09-27T23:09:38.617Z,16.25
2023-09-27T23:12:20.294Z,16.31
2023-09-27T23:18:27.602Z,16.53
2023-09-27T23:21:25.141Z,16.54
2023-09-27T23:24:36.020Z,16.70
2023-09-27T23:27:06.239Z,16.57
2023-09-27T23:29:36.644Z,16.62
2023-09-27T23:32:15.464Z,16.70
2023-09-27T23:34:42.779Z,16.73
2023-09-27T23:37:13.683Z,16.77
2023-09-27T23:39:44.633Z,16.71
2023-09-27T23:42:26.646Z,16.66
2023-09-27T23:44:56.753Z,16.64
2023-09-27T23:47:25.880Z,16.57
2023-09-27T23:49:58.014Z,16.75
2023-09-27T23:52:29.376Z,16.69
2023-09-27T23:55:03.124Z,16.73
2023-09-27T23:57:33.613Z,16.59
